createdAt,value
2022-09-14T00:01:35.000Z,8.27
2022-09-14T00:04:00.783Z,9.27
2022-09-14T00:06:24.043Z,9.77
2022-09-14T00:08:51.397Z,9.07
2022-09-14T00:11:15.229Z,6.85
2022-09-14T00:13:39.888Z,8.05
2022-09-14T00:16:08.166Z,9.23
2022-09-14T00:18:31.714Z,6.53
2022-09-14T00:20:59.647Z,7.72
2022-09-14T00:23:22.142Z,8.05
2022-09-14T00:25:44.718Z,8.85
2022-09-14T00:28:07.269Z,7.97
2022-09-14T00:30:29.836Z,8.35
2022-09-14T00:32:52.404Z,8.10
2022-09-14T00:35:14.945Z,9.95
2022-09-14T00:37:37.639Z,8.25
2022-09-14T00:40:00.267Z,8.65
2022-09-14T00:42:22.915Z,7.65
2022-09-14T00:44:48.191Z,8.35
2022-09-14T00:47:12.622Z,6.63
2022-09-14T00:49:38.476Z,9.52
2022-09-14T00:52:09.840Z,6.82
2022-09-14T00:54:33.444Z,8.63
2022-09-14T00:56:59.350Z,9.07
2022-09-14T00:59:29.104Z,9.05
2022-09-14T01:01:52.160Z,7.32
2022-09-14T01:04:14.876Z,8.77
2022-09-14T01:06:48.240Z,8.05
2022-09-14T01:09:22.588Z,7.60
2022-09-14T01:12:03.253Z,9.25
2022-09-14T01:14:51.818Z,9.77
2022-09-14T01:17:23.112Z,7.20
2022-09-14T01:20:05.604Z,10.35
2022-09-14T01:22:40.284Z,9.00
2022-09-14T01:25:32.236Z,9.00
2022-09-14T01:28:00.326Z,8.93
2022-09-14T01:30:23.863Z,11.70
2022-09-14T01:32:52.646Z,8.40
2022-09-14T01:35:37.679Z,11.57
2022-09-14T01:38:08.624Z,8.10
2022-09-14T01:40:39.424Z,9.93
2022-09-14T01:43:10.821Z,10.57
2022-09-14T01:45:34.867Z,9.95
2022-09-14T01:48:03.163Z,8.18
2022-09-14T01:50:31.855Z,8.85
2022-09-14T01:53:23.686Z,8.32
2022-09-14T01:56:07.998Z,9.77
2022-09-14T01:58:40.079Z,13.82
2022-09-14T02:01:05.958Z,9.45
2022-09-14T02:03:43.927Z,15.10
2022-09-14T02:06:14.251Z,8.27
2022-09-14T02:08:37.475Z,8.05
2022-09-14T02:11:00.703Z,9.95
2022-09-14T02:13:24.137Z,9.98
2022-09-14T02:15:46.777Z,7.30
2022-09-14T02:18:09.264Z,11.85
2022-09-14T02:20:39.413Z,7.65
2022-09-14T02:23:02.099Z,8.63
2022-09-14T02:25:24.910Z,7.55
2022-09-14T02:27:49.101Z,9.55
2022-09-14T02:30:11.939Z,7.60
2022-09-14T02:32:52.212Z,10.38
2022-09-14T02:35:27.771Z,9.15
2022-09-14T02:38:16.662Z,10.07
2022-09-14T02:40:46.642Z,8.50
2022-09-14T02:43:09.202Z,8.50
2022-09-14T02:45:31.946Z,7.45
2022-09-14T02:48:18.900Z,7.05
2022-09-14T02:50:57.616Z,8.00
2022-09-14T02:53:43.614Z,8.07
2022-09-14T02:56:09.804Z,8.82
2022-09-14T02:58:37.500Z,9.07
2022-09-14T03:01:00.034Z,8.60
2022-09-14T03:03:22.544Z,9.77
2022-09-14T03:05:45.291Z,8.10
2022-09-14T03:08:10.339Z,10.27
2022-09-14T03:10:33.638Z,8.35
2022-09-14T03:12:56.238Z,8.27
2022-09-14T03:15:18.990Z,8.57
2022-09-14T03:17:46.135Z,6.70
2022-09-14T03:20:09.157Z,7.72
2022-09-14T03:22:32.962Z,9.60
2022-09-14T03:24:55.548Z,12.13
2022-09-14T03:27:18.147Z,9.23
2022-09-14T03:29:40.918Z,8.45
2022-09-14T03:32:03.508Z,9.15
2022-09-14T03:34:26.194Z,10.05
2022-09-14T03:36:48.768Z,9.65
2022-09-14T03:39:12.512Z,13.63
2022-09-14T03:41:35.013Z,10.05
2022-09-14T03:43:57.566Z,7.88
2022-09-14T03:46:23.507Z,9.65
2022-09-14T03:48:46.226Z,10.75
2022-09-14T03:51:10.283Z,9.38
2022-09-14T03:53:33.676Z,7.13
2022-09-14T03:55:56.240Z,9.10
2022-09-14T03:58:19.103Z,9.13
2022-09-14T04:00:41.672Z,8.95
2022-09-14T04:03:04.463Z,9.15
2022-09-14T04:05:26.999Z,9.00
2022-09-14T04:07:49.589Z,9.82
2022-09-14T04:10:12.098Z,8.95
2022-09-14T04:12:38.597Z,7.60
2022-09-14T04:15:01.020Z,9.68
2022-09-14T04:17:25.135Z,8.55
2022-09-14T04:19:47.697Z,6.90
2022-09-14T04:22:10.309Z,8.15
2022-09-14T04:24:32.763Z,9.52
2022-09-14T04:26:55.353Z,9.40
2022-09-14T04:29:18.109Z,9.20
2022-09-14T04:31:41.171Z,7.70
2022-09-14T04:34:03.758Z,7.70
2022-09-14T04:36:29.543Z,11.52
2022-09-14T04:38:54.258Z,9.50
2022-09-14T04:41:20.560Z,10.02
2022-09-14T04:43:44.677Z,10.55
2022-09-14T04:46:10.863Z,8.02
2022-09-14T04:48:35.300Z,10.40
2022-09-14T04:51:07.739Z,12.40
2022-09-14T04:53:30.553Z,8.13
2022-09-14T04:55:53.083Z,9.02
2022-09-14T04:58:15.916Z,9.35
2022-09-14T05:00:39.639Z,7.18
2022-09-14T05:03:03.751Z,9.38
2022-09-14T05:05:26.453Z,7.72
2022-09-14T05:07:49.195Z,9.32
2022-09-14T05:10:12.051Z,8.68
2022-09-14T05:12:34.576Z,8.00
2022-09-14T05:14:57.164Z,8.85
2022-09-14T05:17:19.744Z,7.28
2022-09-14T05:19:42.382Z,10.93
2022-09-14T05:22:04.926Z,10.32
2022-09-14T05:24:27.721Z,8.20
2022-09-14T05:26:52.533Z,9.13
2022-09-14T05:29:17.355Z,9.65
2022-09-14T05:31:40.401Z,8.48
2022-09-14T05:34:03.131Z,9.23
2022-09-14T05:36:26.218Z,9.45
2022-09-14T05:38:49.067Z,14.85
2022-09-14T05:41:13.985Z,8.60
2022-09-14T05:43:37.223Z,9.88
2022-09-14T05:46:04.795Z,8.60
2022-09-14T05:48:27.884Z,8.60
2022-09-14T05:50:58.593Z,11.32
2022-09-14T05:53:21.401Z,11.32
2022-09-14T05:55:44.169Z,9.20
2022-09-14T05:58:07.031Z,9.10
2022-09-14T06:00:29.925Z,7.70
2022-09-14T06:02:55.210Z,10.20
2022-09-14T06:05:18.694Z,9.27
2022-09-14T06:07:41.873Z,9.30
2022-09-14T06:10:04.733Z,11.18
2022-09-14T06:12:28.116Z,8.77
2022-09-14T06:14:50.756Z,10.27
2022-09-14T06:17:14.842Z,11.07
2022-09-14T06:19:38.491Z,10.68
2022-09-14T06:22:01.114Z,9.27
2022-09-14T06:24:23.756Z,8.45
2022-09-14T06:26:46.332Z,9.65
2022-09-14T06:29:09.093Z,12.07
2022-09-14T06:31:31.847Z,9.18
2022-09-14T06:33:54.967Z,9.88
2022-09-14T06:36:19.949Z,9.23
2022-09-14T06:38:42.919Z,9.55
2022-09-14T06:41:09.049Z,18.15
2022-09-14T06:43:33.914Z,14.25
2022-09-14T06:46:08.352Z,12.45
2022-09-14T06:48:34.634Z,11.55
2022-09-14T06:50:57.469Z,10.35
2022-09-14T06:53:20.808Z,11.77
2022-09-14T06:56:23.085Z,15.18
2022-09-14T06:58:47.911Z,8.52
2022-09-14T07:01:14.455Z,8.57
2022-09-14T07:03:38.777Z,11.02
2022-09-14T07:06:06.546Z,8.23
2022-09-14T07:08:29.512Z,13.52
2022-09-14T07:10:58.941Z,10.98
2022-09-14T07:13:21.774Z,10.40
2022-09-14T07:16:05.361Z,11.68
2022-09-14T07:18:32.915Z,11.68
2022-09-14T07:20:55.937Z,11.95
2022-09-14T07:23:18.623Z,12.68
2022-09-14T07:25:42.387Z,11.52
2022-09-14T07:28:04.955Z,15.98
2022-09-14T07:30:28.325Z,13.43
2022-09-14T07:32:51.154Z,10.45
2022-09-14T07:35:13.740Z,9.65
2022-09-14T07:37:36.501Z,12.07
2022-09-14T07:39:59.200Z,11.52
2022-09-14T07:42:21.879Z,16.65
2022-09-14T07:44:44.713Z,14.52
2022-09-14T07:47:07.522Z,14.52
2022-09-14T07:49:30.567Z,12.82
2022-09-14T07:51:54.119Z,14.20
2022-09-14T07:54:19.830Z,12.13
2022-09-14T07:56:43.807Z,14.75
2022-09-14T07:59:31.336Z,14.38
2022-09-14T08:01:50.397Z,12.93
2022-09-14T08:04:13.282Z,11.52
2022-09-14T08:06:37.248Z,13.85
2022-09-14T08:08:59.874Z,16.77
2022-09-14T08:11:25.198Z,14.18
2022-09-14T08:13:56.865Z,12.43
2022-09-14T08:16:21.188Z,10.98
2022-09-14T08:18:43.868Z,13.45
2022-09-14T08:21:09.689Z,14.35
2022-09-14T08:23:33.117Z,13.27
2022-09-14T08:25:55.688Z,12.95
2022-09-14T08:28:18.168Z,11.48
2022-09-14T08:30:41.443Z,12.90
2022-09-14T08:33:04.075Z,15.02
2022-09-14T08:35:53.656Z,12.10
2022-09-14T08:38:09.718Z,12.95
2022-09-14T08:40:33.396Z,12.50
2022-09-14T08:42:59.224Z,14.48
2022-09-14T08:45:24.183Z,10.38
2022-09-14T08:47:48.702Z,8.88
2022-09-14T08:50:20.286Z,12.30
2022-09-14T08:52:53.683Z,12.18
2022-09-14T08:55:41.550Z,12.50
2022-09-14T08:58:10.124Z,13.43
2022-09-14T09:00:55.506Z,9.10
2022-09-14T09:03:23.949Z,10.65
2022-09-14T09:06:01.122Z,10.38
2022-09-14T09:08:39.457Z,9.05
2022-09-14T09:11:05.707Z,10.60
2022-09-14T09:13:35.826Z,12.70
2022-09-14T09:16:02.946Z,9.05
2022-09-14T09:18:44.134Z,12.18
2022-09-14T09:21:20.236Z,9.15
2022-09-14T09:23:44.192Z,7.57
2022-09-14T09:26:09.729Z,9.75
2022-09-14T09:28:34.048Z,8.18
2022-09-14T09:31:05.274Z,8.90
2022-09-14T09:33:50.597Z,12.48
2022-09-14T09:36:18.578Z,11.75
2022-09-14T09:38:41.966Z,9.25
2022-09-14T09:41:13.251Z,9.38
2022-09-14T09:43:59.070Z,8.27
2022-09-14T09:46:22.508Z,9.15
2022-09-14T09:48:45.889Z,9.02
2022-09-14T09:51:19.808Z,11.73
2022-09-14T09:54:09.899Z,9.65
2022-09-14T09:56:36.562Z,8.10
2022-09-14T09:58:59.434Z,11.80
2022-09-14T10:01:31.388Z,11.75
2022-09-14T10:04:09.201Z,7.07
2022-09-14T10:06:32.916Z,8.93
2022-09-14T10:08:57.528Z,5.60
2022-09-14T10:11:38.019Z,7.15
2022-09-14T10:14:01.706Z,9.75
2022-09-14T10:16:30.760Z,7.80
2022-09-14T10:18:54.291Z,8.95
2022-09-14T10:21:22.245Z,7.97
2022-09-14T10:23:45.303Z,7.25
2022-09-14T10:26:10.604Z,10.52
2022-09-14T10:28:34.154Z,9.60
2022-09-14T10:31:08.707Z,10.85
2022-09-14T10:33:32.591Z,9.33
2022-09-14T10:36:02.182Z,6.60
2022-09-14T10:39:07.825Z,7.82
2022-09-14T10:42:00.485Z,7.55
2022-09-14T10:44:44.722Z,5.50
2022-09-14T10:47:10.252Z,8.07
2022-09-14T10:49:41.676Z,6.07
2022-09-14T10:52:20.344Z,8.10
2022-09-14T10:55:10.565Z,5.82
2022-09-14T10:57:41.037Z,6.53
2022-09-14T11:00:13.273Z,6.17
2022-09-14T11:02:54.093Z,4.35
2022-09-14T11:05:29.568Z,5.50
2022-09-14T11:08:04.948Z,5.93
2022-09-14T11:10:56.451Z,6.32
2022-09-14T11:13:51.512Z,4.60
2022-09-14T11:17:02.056Z,4.30
2022-09-14T11:19:53.144Z,6.18
2022-09-14T11:22:36.878Z,11.45
2022-09-14T11:25:06.357Z,4.70
2022-09-14T11:27:52.123Z,7.20
2022-09-14T11:30:46.915Z,4.18
2022-09-14T11:33:31.546Z,5.28
2022-09-14T11:36:01.961Z,6.78
2022-09-14T11:38:31.004Z,6.53
2022-09-14T11:40:57.539Z,6.50
2022-09-14T11:43:43.966Z,4.43
2022-09-14T11:46:11.856Z,5.70
2022-09-14T11:48:43.370Z,4.38
2022-09-14T11:51:08.531Z,4.70
2022-09-14T11:53:32.781Z,6.07
2022-09-14T11:55:55.676Z,3.85
2022-09-14T11:58:21.926Z,7.75
2022-09-14T12:01:05.175Z,6.30
2022-09-14T12:03:52.263Z,3.92
2022-09-14T12:06:30.138Z,6.33
2022-09-14T12:08:52.938Z,4.32
2022-09-14T12:11:17.194Z,4.63
2022-09-14T12:13:40.045Z,6.07
2022-09-14T12:16:09.791Z,4.53
2022-09-14T12:18:35.990Z,6.63
2022-09-14T12:21:18.377Z,4.60
2022-09-14T12:23:42.035Z,5.22
2022-09-14T12:26:10.772Z,9.52
2022-09-14T12:28:36.203Z,5.85
2022-09-14T12:30:58.748Z,5.00
2022-09-14T12:33:36.299Z,5.63
2022-09-14T12:36:20.866Z,4.00
2022-09-14T12:39:19.017Z,7.30
2022-09-14T12:41:41.567Z,8.32
2022-09-14T12:44:25.136Z,5.17
2022-09-14T12:46:47.990Z,9.90
2022-09-14T12:49:37.141Z,15.25
2022-09-14T12:52:08.943Z,4.80
2022-09-14T12:54:34.094Z,7.13
2022-09-14T12:57:15.486Z,5.07
2022-09-14T13:00:13.587Z,4.63
2022-09-14T13:03:00.651Z,5.88
2022-09-14T13:05:27.583Z,7.50
2022-09-14T13:07:51.108Z,6.05
2022-09-14T13:10:39.937Z,6.70
2022-09-14T13:13:08.578Z,5.13
2022-09-14T13:15:36.885Z,4.70
2022-09-14T13:18:01.015Z,5.68
2022-09-14T13:20:23.725Z,5.22
2022-09-14T13:22:46.328Z,10.47
2022-09-14T13:25:36.269Z,11.57
2022-09-14T13:28:14.195Z,5.18
2022-09-14T13:30:36.906Z,7.60
2022-09-14T13:33:00.245Z,5.65
2022-09-14T13:35:30.145Z,3.90
2022-09-14T13:37:53.602Z,6.10
2022-09-14T13:40:17.074Z,15.10
2022-09-14T13:42:41.282Z,6.75
2022-09-14T13:45:05.879Z,4.93
2022-09-14T13:47:29.038Z,5.30
2022-09-14T13:49:54.458Z,7.43
2022-09-14T13:52:25.878Z,6.85
2022-09-14T13:55:28.338Z,4.18
2022-09-14T13:58:09.254Z,7.35
2022-09-14T14:00:33.355Z,4.40
2022-09-14T14:03:02.176Z,7.22
2022-09-14T14:05:31.431Z,5.93
2022-09-14T14:07:56.599Z,5.05
2022-09-14T14:10:30.127Z,4.15
2022-09-14T14:12:52.761Z,5.10
2022-09-14T14:15:18.269Z,7.03
2022-09-14T14:17:41.573Z,4.88
2022-09-14T14:20:32.612Z,6.82
2022-09-14T14:23:13.197Z,4.88
2022-09-14T14:25:43.373Z,5.90
2022-09-14T14:28:34.365Z,9.15
2022-09-14T14:31:07.713Z,4.63
2022-09-14T14:33:31.284Z,9.13
2022-09-14T14:35:56.469Z,3.80
2022-09-14T14:38:19.100Z,4.00
2022-09-14T14:40:42.996Z,5.05
2022-09-14T14:43:07.653Z,5.32
2022-09-14T14:45:35.406Z,6.07
2022-09-14T14:48:00.013Z,4.20
2022-09-14T14:50:26.184Z,7.43
2022-09-14T14:52:50.282Z,4.90
2022-09-14T14:55:13.003Z,6.85
2022-09-14T14:57:35.749Z,7.63
2022-09-14T14:59:58.512Z,5.50
2022-09-14T15:02:21.331Z,5.60
2022-09-14T15:04:43.820Z,5.55
2022-09-14T15:07:06.562Z,5.32
2022-09-14T15:09:30.140Z,7.03
2022-09-14T15:11:54.732Z,4.70
2022-09-14T15:14:20.198Z,6.03
2022-09-14T15:16:44.387Z,5.25
2022-09-14T15:19:07.327Z,6.25
2022-09-14T15:21:30.152Z,4.32
2022-09-14T15:23:52.688Z,7.43
2022-09-14T15:26:15.395Z,6.27
2022-09-14T15:28:38.803Z,4.80
2022-09-14T15:31:04.860Z,6.13
2022-09-14T15:33:29.637Z,4.45
2022-09-14T15:35:56.711Z,5.70
2022-09-14T15:38:19.183Z,4.37
2022-09-14T15:40:41.871Z,5.47
2022-09-14T15:43:04.355Z,5.03
2022-09-14T15:45:26.857Z,8.80
2022-09-14T15:47:49.296Z,4.22
2022-09-14T15:50:11.886Z,4.93
2022-09-14T15:52:36.213Z,5.15
2022-09-14T15:54:58.895Z,7.20
2022-09-14T15:57:21.524Z,7.18
2022-09-14T15:59:44.130Z,7.05
2022-09-14T16:02:07.205Z,5.50
2022-09-14T16:04:36.514Z,5.00
2022-09-14T16:06:58.958Z,6.07
2022-09-14T16:09:22.483Z,7.30
2022-09-14T16:11:44.986Z,6.07
2022-09-14T16:14:09.419Z,6.90
2022-09-14T16:16:32.631Z,5.85
2022-09-14T16:18:55.219Z,7.25
2022-09-14T16:21:23.622Z,5.55
2022-09-14T16:23:50.137Z,5.53
2022-09-14T16:26:22.171Z,5.13
2022-09-14T16:28:47.981Z,6.18
2022-09-14T16:31:16.338Z,6.13
2022-09-14T16:33:44.214Z,6.45
2022-09-14T16:36:09.480Z,5.95
2022-09-14T16:38:32.112Z,6.20
2022-09-14T16:40:59.568Z,5.88
2022-09-14T16:43:22.577Z,6.55
2022-09-14T16:45:45.328Z,7.22
2022-09-14T16:48:07.994Z,5.95
2022-09-14T16:50:30.585Z,5.70
2022-09-14T16:52:53.130Z,4.70
2022-09-14T16:55:15.793Z,4.95
2022-09-14T16:57:38.594Z,7.45
2022-09-14T17:00:01.402Z,6.07
2022-09-14T17:02:24.216Z,5.83
2022-09-14T17:04:46.888Z,8.90
2022-09-14T17:07:10.354Z,4.97
2022-09-14T17:09:33.116Z,7.50
2022-09-14T17:11:57.179Z,6.68
2022-09-14T17:14:22.643Z,6.73
2022-09-14T17:16:45.607Z,7.18
2022-09-14T17:19:08.393Z,7.15
2022-09-14T17:21:36.449Z,8.57
2022-09-14T17:23:59.375Z,7.93
2022-09-14T17:26:23.177Z,10.70
2022-09-14T17:28:49.410Z,7.22
2022-09-14T17:31:14.632Z,10.93
2022-09-14T17:33:37.226Z,8.00
2022-09-14T17:36:00.396Z,9.52
2022-09-14T17:38:26.556Z,8.93
2022-09-14T17:40:49.486Z,11.23
2022-09-14T17:43:12.338Z,8.63
2022-09-14T17:45:50.640Z,9.23
2022-09-14T17:48:13.278Z,7.78
2022-09-14T17:50:39.131Z,9.10
2022-09-14T17:53:01.697Z,11.55
2022-09-14T17:55:24.738Z,10.75
2022-09-14T17:58:28.616Z,8.60
2022-09-14T18:00:51.278Z,11.55
2022-09-14T18:03:13.892Z,11.37
2022-09-14T18:05:36.924Z,11.65
2022-09-14T18:07:59.554Z,10.07
2022-09-14T18:10:22.293Z,11.32
2022-09-14T18:12:46.186Z,10.48
2022-09-14T18:15:09.640Z,14.32
2022-09-14T18:17:32.344Z,10.30
2022-09-14T18:19:58.535Z,11.23
2022-09-14T18:22:21.268Z,12.23
2022-09-14T18:24:44.213Z,11.30
2022-09-14T18:27:06.814Z,13.35
2022-09-14T18:29:31.553Z,11.52
2022-09-14T18:31:54.332Z,17.58
2022-09-14T18:34:17.782Z,13.13
2022-09-14T18:36:40.360Z,12.13
2022-09-14T18:39:04.498Z,13.65
2022-09-14T18:41:29.685Z,11.57
2022-09-14T18:43:53.334Z,14.80
2022-09-14T18:46:18.025Z,12.02
2022-09-14T18:48:43.747Z,13.20
2022-09-14T18:51:06.713Z,12.32
2022-09-14T18:53:32.115Z,11.32
2022-09-14T18:55:54.768Z,13.57
2022-09-14T18:58:17.412Z,14.20
2022-09-14T19:00:45.674Z,15.20
2022-09-14T19:03:09.917Z,11.23
2022-09-14T19:05:33.889Z,11.63
2022-09-14T19:07:56.352Z,14.52
2022-09-14T19:10:19.398Z,15.40
2022-09-14T19:12:42.124Z,12.02
2022-09-14T19:15:05.117Z,12.88
2022-09-14T19:17:27.968Z,14.60
2022-09-14T19:19:50.448Z,15.50
2022-09-14T19:22:13.056Z,14.38
2022-09-14T19:24:35.633Z,13.25
2022-09-14T19:26:58.196Z,12.73
2022-09-14T19:29:23.388Z,12.02
2022-09-14T19:31:51.014Z,13.15
2022-09-14T19:34:13.563Z,13.07
2022-09-14T19:36:36.144Z,13.82
2022-09-14T19:39:01.864Z,12.43
2022-09-14T19:41:44.343Z,11.63
2022-09-14T19:44:26.740Z,12.57
2022-09-14T19:46:50.055Z,12.68
2022-09-14T19:49:21.751Z,11.15
2022-09-14T19:51:45.368Z,11.20
2022-09-14T19:54:09.243Z,9.05
2022-09-14T19:56:32.566Z,14.10
2022-09-14T19:58:57.896Z,10.30
2022-09-14T20:01:22.673Z,7.10
2022-09-14T20:03:46.255Z,8.90
2022-09-14T20:06:12.129Z,10.55
2022-09-14T20:08:36.265Z,7.07
2022-09-14T20:11:16.573Z,11.93
2022-09-14T20:13:41.866Z,7.63
2022-09-14T20:16:28.736Z,8.60
2022-09-14T20:18:52.883Z,8.40
2022-09-14T20:21:18.896Z,8.02
2022-09-14T20:23:57.972Z,10.95
2022-09-14T20:26:26.612Z,10.73
2022-09-14T20:28:49.896Z,5.97
2022-09-14T20:31:13.777Z,6.80
2022-09-14T20:33:37.212Z,8.40
2022-09-14T20:36:14.717Z,8.38
2022-09-14T20:38:42.669Z,7.53
2022-09-14T20:41:07.963Z,12.57
2022-09-14T20:43:32.377Z,8.68
2022-09-14T20:46:04.721Z,6.38
2022-09-14T20:48:27.990Z,7.63
2022-09-14T20:50:52.089Z,5.63
2022-09-14T20:53:14.710Z,8.30
2022-09-14T20:55:37.252Z,7.13
2022-09-14T20:57:59.909Z,6.90
2022-09-14T21:00:22.605Z,7.90
2022-09-14T21:02:50.705Z,7.82
2022-09-14T21:05:13.288Z,7.00
2022-09-14T21:07:35.906Z,8.95
2022-09-14T21:09:59.552Z,5.50
2022-09-14T21:12:22.397Z,6.22
2022-09-14T21:14:45.399Z,7.75
2022-09-14T21:17:08.131Z,7.50
2022-09-14T21:19:31.318Z,6.13
2022-09-14T21:21:54.309Z,5.90
2022-09-14T21:24:18.767Z,7.03
2022-09-14T21:26:42.950Z,8.40
2022-09-14T21:29:07.634Z,6.47
2022-09-14T21:31:30.421Z,7.32
2022-09-14T21:33:54.802Z,5.40
2022-09-14T21:36:30.735Z,6.40
2022-09-14T21:38:55.878Z,6.32
2022-09-14T21:41:19.476Z,6.07
2022-09-14T21:43:42.684Z,5.28
2022-09-14T21:46:06.252Z,6.15
2022-09-14T21:48:29.240Z,7.00
2022-09-14T21:51:01.619Z,5.30
2022-09-14T21:53:25.544Z,5.50
2022-09-14T21:55:49.361Z,5.75
2022-09-14T21:58:12.187Z,5.20
2022-09-14T22:00:35.206Z,6.75
2022-09-14T22:02:58.147Z,6.80
2022-09-14T22:05:21.215Z,7.13
2022-09-14T22:07:44.057Z,8.25
2022-09-14T22:10:08.104Z,9.57
2022-09-14T22:12:31.000Z,6.28
2022-09-14T22:14:53.483Z,4.40
2022-09-14T22:17:34.666Z,4.43
2022-09-14T22:20:00.660Z,5.10
2022-09-14T22:22:23.196Z,7.80
2022-09-14T22:24:45.737Z,6.07
2022-09-14T22:27:09.757Z,4.30
2022-09-14T22:29:32.894Z,10.23
2022-09-14T22:31:55.679Z,5.53
2022-09-14T22:34:18.640Z,7.30
2022-09-14T22:36:41.794Z,5.32
2022-09-14T22:39:05.241Z,5.95
2022-09-14T22:41:28.709Z,4.93
2022-09-14T22:43:52.308Z,6.20
2022-09-14T22:46:16.647Z,7.80
2022-09-14T22:48:40.111Z,8.02
2022-09-14T22:51:04.367Z,5.47
2022-09-14T22:53:28.697Z,8.48
2022-09-14T22:55:52.262Z,7.90
2022-09-14T22:58:17.265Z,5.85
2022-09-14T23:00:40.350Z,7.22
2022-09-14T23:03:03.196Z,5.72
2022-09-14T23:05:25.888Z,6.13
2022-09-14T23:07:48.935Z,6.60
2022-09-14T23:10:11.769Z,6.43
2022-09-14T23:12:34.503Z,6.22
2022-09-14T23:14:57.387Z,7.65
2022-09-14T23:17:20.147Z,7.30
2022-09-14T23:19:43.543Z,6.90
2022-09-14T23:22:06.758Z,7.68
2022-09-14T23:24:29.888Z,6.35
2022-09-14T23:26:53.063Z,6.43
2022-09-14T23:29:17.053Z,7.63
2022-09-14T23:31:39.980Z,5.60
2022-09-14T23:34:04.326Z,6.95
2022-09-14T23:36:28.825Z,8.82
2022-09-14T23:38:52.587Z,6.75
2022-09-14T23:41:17.280Z,6.18
2022-09-14T23:43:40.336Z,6.13
2022-09-14T23:46:03.706Z,8.07
2022-09-14T23:48:27.426Z,7.57
2022-09-14T23:51:00.984Z,5.97
2022-09-14T23:53:24.128Z,8.13
2022-09-14T23:55:46.855Z,8.05
2022-09-14T23:58:09.961Z,6.95
